createdAt,value
2023-04-27T00:00:53.431Z,19.10
2023-04-27T00:01:53.423Z,19.10
2023-04-27T00:02:53.612Z,21.00
2023-04-27T00:03:53.554Z,19.10
2023-04-27T00:05:53.446Z,19.50
2023-04-27T00:06:53.384Z,18.30
2023-04-27T00:07:53.367Z,19.50
2023-04-27T00:08:53.344Z,19.50
2023-04-27T00:09:53.386Z,19.70
2023-04-27T00:10:53.335Z,20.00
2023-04-27T00:11:53.295Z,18.60
2023-04-27T00:12:53.300Z,20.30
2023-04-27T00:13:53.294Z,20.90
2023-04-27T00:14:53.292Z,20.90
2023-04-27T00:15:53.283Z,20.30
2023-04-27T00:16:53.374Z,20.90
2023-04-27T00:17:53.312Z,20.30
2023-04-27T00:18:53.213Z,20.30
2023-04-27T00:19:53.209Z,20.80
2023-04-27T00:20:53.213Z,19.10
2023-04-27T00:21:53.183Z,20.10
2023-04-27T00:22:53.191Z,19.70
2023-04-27T00:23:53.166Z,20.30
2023-04-27T00:24:53.167Z,19.80
2023-04-27T00:25:53.171Z,19.30
2023-04-27T00:26:53.157Z,20.60
2023-04-27T00:27:53.140Z,20.60
2023-04-27T00:28:53.114Z,20.80
2023-04-27T00:29:53.092Z,21.30
2023-04-27T00:30:53.100Z,19.90
2023-04-27T00:31:53.128Z,21.00
2023-04-27T00:32:53.088Z,21.10
2023-04-27T00:33:53.078Z,20.50
2023-04-27T00:34:53.048Z,20.80
2023-04-27T00:35:53.042Z,21.40
2023-04-27T00:36:53.052Z,19.60
2023-04-27T00:37:53.014Z,20.30
2023-04-27T00:38:53.007Z,21.60
2023-04-27T00:39:53.002Z,21.30
2023-04-27T00:40:59.638Z,20.00
2023-04-27T00:41:52.970Z,20.30
2023-04-27T00:42:53.019Z,21.00
2023-04-27T00:43:52.963Z,20.40
2023-04-27T00:44:52.936Z,21.20
2023-04-27T00:45:52.993Z,21.80
2023-04-27T00:46:52.917Z,21.30
2023-04-27T00:47:52.981Z,20.70
2023-04-27T00:48:52.891Z,20.90
2023-04-27T00:49:52.868Z,19.60
2023-04-27T00:50:52.877Z,19.10
2023-04-27T00:51:52.868Z,20.40
2023-04-27T00:52:52.858Z,19.70
2023-04-27T00:53:52.830Z,21.00
2023-04-27T00:54:52.843Z,20.80
2023-04-27T00:55:52.815Z,20.20
2023-04-27T00:56:52.802Z,20.80
2023-04-27T00:57:52.793Z,20.40
2023-04-27T00:58:52.816Z,20.10
2023-04-27T00:59:52.788Z,20.30
2023-04-27T01:00:52.859Z,20.00
2023-04-27T01:01:52.769Z,20.00
2023-04-27T01:02:52.998Z,19.30
2023-04-27T01:03:53.014Z,19.90
2023-04-27T01:04:53.473Z,19.10
2023-04-27T01:05:54.681Z,20.50
2023-04-27T01:06:52.929Z,19.00
2023-04-27T01:07:53.005Z,19.90
2023-04-27T01:08:53.128Z,19.20
2023-04-27T01:09:52.683Z,20.10
2023-04-27T01:10:52.665Z,17.90
2023-04-27T01:11:52.631Z,18.20
2023-04-27T01:12:52.650Z,19.40
2023-04-27T01:13:52.630Z,18.90
2023-04-27T01:14:52.630Z,18.40
2023-04-27T01:15:52.600Z,17.90
2023-04-27T01:16:52.713Z,18.00
2023-04-27T01:17:52.660Z,18.50
2023-04-27T01:18:52.557Z,18.00
2023-04-27T01:19:52.538Z,17.50
2023-04-27T01:20:52.558Z,17.70
2023-04-27T01:21:52.530Z,17.60
2023-04-27T01:22:52.513Z,18.50
2023-04-27T01:23:52.513Z,18.10
2023-04-27T01:24:52.514Z,18.30
2023-04-27T01:25:52.493Z,17.90
2023-04-27T01:26:52.465Z,18.00
2023-04-27T01:27:52.450Z,16.90
2023-04-27T01:28:52.463Z,17.40
2023-04-27T01:29:52.429Z,18.60
2023-04-27T01:30:52.468Z,18.20
2023-04-27T01:31:52.429Z,18.70
2023-04-27T01:32:52.434Z,17.10
2023-04-27T01:33:52.402Z,17.80
2023-04-27T01:34:52.413Z,18.20
2023-04-27T01:35:52.389Z,18.10
2023-04-27T01:36:52.383Z,17.40
2023-04-27T01:37:52.352Z,17.90
2023-04-27T01:38:52.358Z,18.30
2023-04-27T01:39:52.331Z,17.50
2023-04-27T01:40:52.338Z,16.70
2023-04-27T01:41:52.332Z,16.60
2023-04-27T01:42:52.323Z,16.80
2023-04-27T01:43:52.281Z,16.50
2023-04-27T01:44:52.275Z,16.50
2023-04-27T01:45:52.287Z,16.60
2023-04-27T01:46:52.276Z,16.60
2023-04-27T01:47:52.285Z,15.10
2023-04-27T01:48:52.275Z,16.40
2023-04-27T01:49:52.236Z,15.90
2023-04-27T01:50:52.230Z,15.40
2023-04-27T01:51:52.209Z,14.90
2023-04-27T01:52:52.203Z,15.40
2023-04-27T01:53:52.191Z,15.30
2023-04-27T01:54:52.182Z,15.70
2023-04-27T01:55:52.153Z,14.60
2023-04-27T01:56:52.164Z,16.30
2023-04-27T01:57:52.136Z,15.70
2023-04-27T01:58:52.155Z,16.20
2023-04-27T01:59:52.118Z,15.30
2023-04-27T02:00:52.114Z,14.40
2023-04-27T02:01:52.141Z,14.80
2023-04-27T02:02:52.157Z,14.70
2023-04-27T02:03:52.240Z,15.50
2023-04-27T02:04:52.210Z,15.40
2023-04-27T02:05:52.049Z,14.90
2023-04-27T02:06:52.047Z,15.50
2023-04-27T02:07:52.028Z,14.90
2023-04-27T02:08:52.045Z,14.80
2023-04-27T02:09:52.022Z,14.40
2023-04-27T02:10:52.030Z,15.00
2023-04-27T02:11:51.983Z,14.50
2023-04-27T02:12:52.025Z,15.50
2023-04-27T02:13:51.980Z,14.70
2023-04-27T02:14:51.964Z,14.10
2023-04-27T02:15:52.010Z,14.30
2023-04-27T02:16:51.931Z,14.30
2023-04-27T02:17:51.980Z,14.40
2023-04-27T02:18:51.930Z,14.70
2023-04-27T02:19:51.932Z,14.40
2023-04-27T02:20:51.887Z,14.40
2023-04-27T02:21:51.882Z,13.80
2023-04-27T02:22:51.868Z,14.70
2023-04-27T02:23:51.850Z,14.20
2023-04-27T02:24:51.864Z,14.60
2023-04-27T02:25:51.838Z,14.60
2023-04-27T02:26:51.846Z,13.90
2023-04-27T02:27:51.821Z,14.60
2023-04-27T02:28:51.803Z,14.30
2023-04-27T02:29:51.790Z,14.80
2023-04-27T02:30:51.796Z,14.60
2023-04-27T02:31:51.829Z,13.40
2023-04-27T02:32:51.848Z,14.40
2023-04-27T02:33:51.754Z,13.60
2023-04-27T02:34:51.758Z,14.40
2023-04-27T02:35:51.753Z,14.50
2023-04-27T02:36:51.749Z,14.30
2023-04-27T02:37:51.718Z,14.10
2023-04-27T02:38:51.712Z,14.20
2023-04-27T02:39:51.715Z,14.20
2023-04-27T02:40:51.685Z,14.10
2023-04-27T02:41:51.676Z,14.30
2023-04-27T02:42:51.694Z,14.50
2023-04-27T02:43:51.663Z,14.70
2023-04-27T02:44:51.643Z,15.10
2023-04-27T02:45:51.621Z,14.30
2023-04-27T02:46:51.677Z,14.50
2023-04-27T02:47:51.635Z,14.80
2023-04-27T02:48:51.594Z,14.70
2023-04-27T02:49:51.637Z,14.70
2023-04-27T02:50:51.623Z,15.20
2023-04-27T02:51:51.554Z,13.80
2023-04-27T02:52:51.564Z,13.90
2023-04-27T02:53:51.549Z,15.70
2023-04-27T02:54:51.531Z,14.80
2023-04-27T02:55:51.531Z,15.60
2023-04-27T02:56:51.530Z,14.40
2023-04-27T02:57:51.492Z,14.90
2023-04-27T02:58:51.493Z,14.40
2023-04-27T02:59:51.473Z,15.10
2023-04-27T03:00:51.509Z,15.70
2023-04-27T03:01:51.454Z,15.20
2023-04-27T03:02:51.574Z,16.90
2023-04-27T03:03:51.542Z,15.20
2023-04-27T03:04:51.533Z,15.10
2023-04-27T03:05:51.393Z,15.50
2023-04-27T03:06:51.432Z,15.00
2023-04-27T03:07:51.397Z,16.30
2023-04-27T03:08:51.362Z,15.50
2023-04-27T03:09:51.348Z,14.70
2023-04-27T03:10:51.356Z,15.90
2023-04-27T03:11:51.366Z,15.60
2023-04-27T03:12:51.338Z,15.70
2023-04-27T03:13:51.327Z,17.30
2023-04-27T03:14:51.291Z,15.90
2023-04-27T03:15:51.297Z,16.60
2023-04-27T03:16:51.390Z,17.50
2023-04-27T03:17:51.331Z,16.50
2023-04-27T03:18:51.264Z,16.80
2023-04-27T03:19:51.240Z,16.40
2023-04-27T03:20:51.246Z,16.70
2023-04-27T03:21:51.224Z,17.30
2023-04-27T03:22:51.235Z,17.60
2023-04-27T03:23:51.217Z,18.20
2023-04-27T03:24:51.209Z,16.30
2023-04-27T03:25:51.176Z,17.40
2023-04-27T03:26:51.185Z,17.90
2023-04-27T03:27:51.173Z,17.70
2023-04-27T03:28:51.144Z,18.20
2023-04-27T03:29:51.137Z,17.20
2023-04-27T03:30:51.138Z,18.10
2023-04-27T03:31:51.184Z,17.50
2023-04-27T03:32:51.210Z,17.50
2023-04-27T03:33:51.104Z,18.00
2023-04-27T03:34:51.102Z,18.40
2023-04-27T03:35:51.058Z,18.20
2023-04-27T03:36:51.094Z,17.00
2023-04-27T03:37:51.053Z,17.10
2023-04-27T03:38:51.027Z,17.80
2023-04-27T03:39:51.043Z,16.60
2023-04-27T03:40:51.049Z,17.20
2023-04-27T03:41:51.021Z,17.70
2023-04-27T03:42:51.001Z,16.90
2023-04-27T03:43:50.991Z,17.10
2023-04-27T03:44:50.991Z,17.60
2023-04-27T03:45:51.011Z,17.00
2023-04-27T03:46:50.962Z,17.90
2023-04-27T03:47:50.942Z,16.80
2023-04-27T03:48:50.955Z,17.60
2023-04-27T03:49:50.931Z,17.30
2023-04-27T03:50:51.013Z,16.90
2023-04-27T03:51:50.882Z,16.50
2023-04-27T03:52:50.906Z,16.70
2023-04-27T03:53:50.866Z,16.60
2023-04-27T03:54:50.886Z,16.00
2023-04-27T03:55:50.848Z,16.20
2023-04-27T03:56:50.851Z,16.10
2023-04-27T03:57:50.842Z,15.50
2023-04-27T03:58:50.820Z,15.50
2023-04-27T03:59:50.805Z,16.50
2023-04-27T04:00:50.795Z,16.00
2023-04-27T04:01:50.849Z,16.40
2023-04-27T04:02:50.871Z,15.80
2023-04-27T04:03:50.869Z,15.60
2023-04-27T04:04:50.836Z,16.20
2023-04-27T04:05:50.739Z,15.20
2023-04-27T04:06:50.734Z,15.90
2023-04-27T04:07:50.721Z,16.40
2023-04-27T04:08:50.724Z,15.40
2023-04-27T04:09:50.722Z,15.70
2023-04-27T04:10:50.767Z,15.70
2023-04-27T04:11:50.672Z,16.20
2023-04-27T04:12:50.686Z,16.50
2023-04-27T04:13:50.666Z,16.30
2023-04-27T04:14:50.696Z,16.20
2023-04-27T04:15:50.644Z,15.80
2023-04-27T04:16:50.636Z,15.60
2023-04-27T04:17:50.642Z,16.00
2023-04-27T04:18:50.601Z,16.40
2023-04-27T04:19:50.580Z,16.30
2023-04-27T04:20:50.637Z,16.80
2023-04-27T04:21:50.589Z,16.70
2023-04-27T04:22:50.556Z,15.70
2023-04-27T04:23:50.555Z,15.90
2023-04-27T04:24:50.564Z,14.60
2023-04-27T04:25:50.558Z,15.30
2023-04-27T04:26:50.530Z,14.80
2023-04-27T04:27:50.507Z,15.50
2023-04-27T04:28:50.536Z,15.10
2023-04-27T04:29:50.495Z,15.80
2023-04-27T04:30:50.486Z,14.70
2023-04-27T04:31:50.570Z,15.70
2023-04-27T04:32:50.492Z,16.10
2023-04-27T04:33:50.470Z,15.20
2023-04-27T04:34:50.424Z,16.40
2023-04-27T04:35:50.444Z,15.90
2023-04-27T04:36:50.433Z,14.60
2023-04-27T04:37:50.399Z,15.70
2023-04-27T04:38:50.382Z,15.70
2023-04-27T04:39:50.368Z,16.70
2023-04-27T04:40:50.387Z,16.30
2023-04-27T04:41:50.371Z,15.90
2023-04-27T04:42:50.339Z,15.50
2023-04-27T04:43:50.322Z,15.10
2023-04-27T04:44:50.317Z,16.20
2023-04-27T04:45:50.300Z,15.50
2023-04-27T04:46:50.427Z,15.70
2023-04-27T04:47:50.328Z,15.30
2023-04-27T04:48:51.648Z,15.30
2023-04-27T04:49:50.287Z,15.30
2023-04-27T04:50:50.305Z,15.20
2023-04-27T04:51:50.277Z,15.30
2023-04-27T04:52:50.224Z,15.30
2023-04-27T04:53:50.236Z,15.30
2023-04-27T04:54:50.223Z,15.60
2023-04-27T04:55:50.223Z,16.30
2023-04-27T04:56:50.213Z,15.80
2023-04-27T04:57:50.214Z,16.30
2023-04-27T04:58:50.176Z,15.90
2023-04-27T04:59:50.191Z,15.80
2023-04-27T05:00:50.167Z,16.30
2023-04-27T05:01:50.204Z,16.60
2023-04-27T05:02:50.378Z,15.70
2023-04-27T05:03:50.330Z,15.40
2023-04-27T05:04:50.205Z,15.50
2023-04-27T05:05:50.090Z,16.00
2023-04-27T05:06:50.091Z,16.20
2023-04-27T05:07:50.093Z,15.90
2023-04-27T05:08:50.082Z,16.10
2023-04-27T05:09:50.082Z,15.40
2023-04-27T05:10:50.044Z,15.10
2023-04-27T05:11:50.038Z,16.80
2023-04-27T05:12:50.038Z,15.40
2023-04-27T05:13:50.006Z,16.40
2023-04-27T05:14:49.994Z,16.40
2023-04-27T05:15:50.028Z,15.40
2023-04-27T05:16:49.981Z,15.90
2023-04-27T05:17:50.010Z,15.60
2023-04-27T05:18:49.971Z,14.80
2023-04-27T05:19:49.950Z,16.00
2023-04-27T05:20:49.990Z,16.30
2023-04-27T05:21:49.921Z,16.30
2023-04-27T05:22:49.920Z,16.30
2023-04-27T05:23:49.915Z,15.60
2023-04-27T05:24:49.900Z,15.10
2023-04-27T05:25:49.876Z,15.50
2023-04-27T05:26:49.878Z,16.00
2023-04-27T05:27:49.856Z,15.50
2023-04-27T05:28:49.875Z,16.40
2023-04-27T05:29:49.849Z,15.10
2023-04-27T05:30:49.837Z,15.70
2023-04-27T05:31:49.867Z,15.10
2023-04-27T05:32:49.860Z,15.20
2023-04-27T05:33:49.797Z,16.00
2023-04-27T05:34:49.815Z,16.10
2023-04-27T05:35:49.781Z,16.20
2023-04-27T05:36:49.771Z,15.90
2023-04-27T05:37:49.763Z,15.70
2023-04-27T05:38:49.761Z,14.70
2023-04-27T05:39:49.746Z,15.80
2023-04-27T05:40:49.751Z,15.80
2023-04-27T05:41:49.722Z,15.20
2023-04-27T05:42:49.697Z,15.40
2023-04-27T05:43:49.696Z,14.90
2023-04-27T05:44:49.688Z,14.20
2023-04-27T05:45:49.713Z,13.60
2023-04-27T05:46:49.663Z,15.00
2023-04-27T05:47:49.725Z,15.10
2023-04-27T05:48:49.639Z,14.90
2023-04-27T05:49:49.613Z,14.00
2023-04-27T05:50:49.623Z,13.40
2023-04-27T05:51:49.594Z,14.20
2023-04-27T05:52:49.600Z,13.80
2023-04-27T05:53:49.602Z,13.40
2023-04-27T05:54:49.558Z,13.80
2023-04-27T05:55:49.568Z,14.70
2023-04-27T05:56:49.533Z,13.30
2023-04-27T05:57:57.166Z,13.30
2023-04-27T05:58:50.520Z,13.90
2023-04-27T05:59:49.524Z,13.50
2023-04-27T06:00:49.510Z,13.70
2023-04-27T06:01:49.528Z,13.70
2023-04-27T06:02:49.619Z,14.30
2023-04-27T06:03:49.569Z,14.40
2023-04-27T06:04:49.494Z,13.70
2023-04-27T06:05:49.477Z,13.50
2023-04-27T06:06:49.450Z,13.40
2023-04-27T06:07:49.437Z,13.60
2023-04-27T06:08:49.415Z,14.40
2023-04-27T06:09:49.424Z,14.40
2023-04-27T06:10:49.400Z,14.50
2023-04-27T06:11:49.412Z,13.40
2023-04-27T06:12:49.372Z,14.40
2023-04-27T06:13:49.357Z,14.30
2023-04-27T06:14:49.356Z,13.70
2023-04-27T06:15:49.376Z,14.80
2023-04-27T06:16:49.323Z,14.60
2023-04-27T06:17:49.331Z,13.70
2023-04-27T06:18:49.342Z,13.70
2023-04-27T06:19:49.335Z,13.90
2023-04-27T06:20:49.285Z,14.60
2023-04-27T06:21:49.275Z,14.30
2023-04-27T06:22:49.266Z,14.50
2023-04-27T06:23:49.258Z,14.90
2023-04-27T06:24:49.249Z,13.90
2023-04-27T06:25:49.250Z,13.60
2023-04-27T06:26:49.210Z,14.10
2023-04-27T06:27:49.225Z,14.40
2023-04-27T06:28:49.189Z,15.10
2023-04-27T06:29:49.198Z,14.30
2023-04-27T06:30:49.197Z,14.00
2023-04-27T06:31:49.179Z,13.60
2023-04-27T06:32:49.179Z,13.90
2023-04-27T06:33:49.150Z,14.40
2023-04-27T06:34:49.136Z,14.40
2023-04-27T06:35:49.130Z,14.80
2023-04-27T06:36:49.100Z,14.30
2023-04-27T06:37:49.119Z,13.60
2023-04-27T06:38:49.093Z,14.10
2023-04-27T06:39:49.089Z,14.70
2023-04-27T06:40:49.068Z,14.50
2023-04-27T06:41:49.053Z,14.80
2023-04-27T06:42:49.054Z,14.90
2023-04-27T06:43:49.048Z,14.70
2023-04-27T06:44:49.041Z,14.40
2023-04-27T06:45:49.105Z,15.20
2023-04-27T06:46:49.057Z,14.80
2023-04-27T06:47:49.034Z,15.30
2023-04-27T06:48:48.988Z,15.50
2023-04-27T06:49:49.853Z,16.40
2023-04-27T06:50:48.958Z,14.90
2023-04-27T06:51:48.945Z,15.00
2023-04-27T06:52:48.946Z,15.40
2023-04-27T06:53:48.947Z,15.30
2023-04-27T06:54:48.907Z,15.60
2023-04-27T06:55:48.919Z,15.90
2023-04-27T06:56:48.899Z,15.70
2023-04-27T06:57:48.893Z,15.50
2023-04-27T06:58:48.861Z,15.60
2023-04-27T06:59:48.876Z,15.50
2023-04-27T07:00:48.853Z,15.50
2023-04-27T07:01:48.851Z,15.60
2023-04-27T07:02:48.897Z,15.90
2023-04-27T07:03:48.939Z,17.00
2023-04-27T07:04:48.877Z,15.50
2023-04-27T07:05:48.811Z,16.10
2023-04-27T07:06:48.777Z,15.30
2023-04-27T07:07:48.777Z,14.60
2023-04-27T07:08:48.755Z,16.40
2023-04-27T07:09:48.747Z,16.60
2023-04-27T07:10:48.745Z,16.10
2023-04-27T07:11:48.751Z,16.70
2023-04-27T07:12:48.708Z,16.10
2023-04-27T07:13:48.728Z,16.00
2023-04-27T07:14:48.688Z,16.30
2023-04-27T07:15:48.717Z,16.80
2023-04-27T07:16:48.687Z,16.80
2023-04-27T07:17:48.699Z,17.00
2023-04-27T07:18:48.670Z,16.70
2023-04-27T07:19:48.674Z,17.00
2023-04-27T07:20:48.617Z,15.80
2023-04-27T07:21:48.781Z,16.00
2023-04-27T07:22:48.632Z,16.30
2023-04-27T07:23:48.625Z,16.40
2023-04-27T07:24:48.605Z,16.90
2023-04-27T07:25:48.595Z,16.40
2023-04-27T07:26:48.561Z,16.60
2023-04-27T07:27:48.552Z,17.20
2023-04-27T07:28:48.550Z,17.10
2023-04-27T07:29:48.558Z,15.90
2023-04-27T07:30:48.532Z,16.40
2023-04-27T07:31:49.386Z,16.80
2023-04-27T07:32:48.500Z,16.60
2023-04-27T07:33:48.493Z,16.30
2023-04-27T07:34:53.286Z,16.80
2023-04-27T07:35:49.456Z,15.90
2023-04-27T07:36:48.448Z,17.10
2023-04-27T07:37:48.441Z,17.10
2023-04-27T07:38:48.440Z,16.00
2023-04-27T07:39:48.448Z,17.00
2023-04-27T07:40:48.421Z,16.20
2023-04-27T07:41:48.407Z,14.50
2023-04-27T07:42:48.379Z,14.30
2023-04-27T07:43:48.368Z,14.30
2023-04-27T07:44:48.361Z,14.50
2023-04-27T07:45:48.396Z,13.70
2023-04-27T07:46:48.329Z,15.60
2023-04-27T07:47:48.375Z,15.90
2023-04-27T07:48:48.304Z,14.40
2023-04-27T07:49:48.318Z,14.80
2023-04-27T07:50:48.285Z,14.80
2023-04-27T07:51:48.309Z,15.10
2023-04-27T07:52:48.316Z,14.80
2023-04-27T07:53:48.263Z,14.40
2023-04-27T07:54:48.264Z,12.80
2023-04-27T07:55:48.247Z,13.30
2023-04-27T07:56:48.219Z,13.80
2023-04-27T07:57:48.216Z,12.60
2023-04-27T07:58:48.256Z,13.90
2023-04-27T07:59:48.196Z,13.40
2023-04-27T08:00:48.193Z,14.10
2023-04-27T08:01:48.278Z,14.40
2023-04-27T08:02:48.431Z,14.90
2023-04-27T08:03:48.518Z,16.80
2023-04-27T08:04:48.711Z,17.10
2023-04-27T08:05:48.377Z,16.40
2023-04-27T08:06:48.627Z,16.80
2023-04-27T08:07:48.296Z,17.50
2023-04-27T08:08:48.092Z,17.60
2023-04-27T08:09:48.116Z,17.20
2023-04-27T08:10:48.120Z,17.60
2023-04-27T08:11:48.116Z,17.20
2023-04-27T08:12:48.060Z,16.70
2023-04-27T08:13:48.060Z,17.80
2023-04-27T08:14:48.034Z,18.40
2023-04-27T08:15:48.030Z,18.30
2023-04-27T08:16:48.071Z,19.70
2023-04-27T08:17:48.038Z,19.80
2023-04-27T08:18:48.016Z,20.50
2023-04-27T08:19:48.029Z,19.60
2023-04-27T08:20:47.966Z,19.20
2023-04-27T08:21:47.981Z,20.30
2023-04-27T08:22:47.948Z,18.90
2023-04-27T08:23:47.923Z,18.70
2023-04-27T08:24:47.932Z,18.60
2023-04-27T08:25:47.927Z,19.30
2023-04-27T08:26:47.889Z,19.20
2023-04-27T08:27:47.900Z,18.90
2023-04-27T08:28:47.907Z,19.30
2023-04-27T08:29:47.859Z,17.50
2023-04-27T08:30:47.891Z,19.00
2023-04-27T08:31:47.977Z,19.30
2023-04-27T08:32:47.976Z,18.70
2023-04-27T08:33:47.828Z,18.30
2023-04-27T08:34:47.833Z,18.10
2023-04-27T08:35:47.882Z,18.70
2023-04-27T08:36:47.795Z,18.80
2023-04-27T08:37:47.785Z,18.70
2023-04-27T08:38:47.766Z,19.20
2023-04-27T08:39:47.767Z,20.50
2023-04-27T08:40:47.747Z,18.70
2023-04-27T08:41:47.732Z,18.40
2023-04-27T08:42:47.716Z,17.90
2023-04-27T08:43:47.724Z,18.80
2023-04-27T08:44:47.705Z,19.30
2023-04-27T08:45:47.704Z,19.80
2023-04-27T08:46:47.792Z,19.70
2023-04-27T08:47:47.713Z,19.40
2023-04-27T08:48:47.657Z,19.20
2023-04-27T08:49:48.011Z,18.80
2023-04-27T08:50:49.000Z,19.60
2023-04-27T08:51:47.629Z,19.90
2023-04-27T08:52:57.995Z,20.20
2023-04-27T08:53:47.952Z,18.10
2023-04-27T08:54:47.663Z,18.60
2023-04-27T08:55:47.570Z,18.90
2023-04-27T08:56:47.569Z,19.30
2023-04-27T08:57:47.567Z,20.10
2023-04-27T08:58:47.551Z,19.30
2023-04-27T08:59:47.629Z,19.20
2023-04-27T09:00:47.542Z,19.20
2023-04-27T09:01:47.549Z,19.60
2023-04-27T09:02:47.789Z,19.00
2023-04-27T09:03:47.625Z,19.10
2023-04-27T09:04:47.636Z,19.00
2023-04-27T09:06:00.649Z,18.90
2023-04-27T09:06:48.514Z,18.50
2023-04-27T09:07:47.456Z,18.30
2023-04-27T09:08:47.452Z,17.60
2023-04-27T09:09:47.446Z,18.60
2023-04-27T09:10:47.632Z,18.60
2023-04-27T09:11:47.400Z,18.40
2023-04-27T09:12:47.467Z,18.30
2023-04-27T09:13:47.407Z,18.80
2023-04-27T09:14:47.374Z,18.60
2023-04-27T09:15:48.530Z,18.60
2023-04-27T09:16:47.381Z,18.50
2023-04-27T09:17:48.072Z,18.80
2023-04-27T09:18:47.352Z,18.10
2023-04-27T09:19:47.333Z,19.40
2023-04-27T09:20:47.318Z,19.90
2023-04-27T09:21:47.797Z,19.80
2023-04-27T09:22:47.303Z,19.40
2023-04-27T09:23:47.277Z,19.10
2023-04-27T09:24:47.293Z,18.40
2023-04-27T09:25:47.263Z,18.70
2023-04-27T09:26:47.241Z,19.70
2023-04-27T09:27:47.220Z,19.50
2023-04-27T09:28:47.224Z,19.30
2023-04-27T09:29:47.214Z,18.40
2023-04-27T09:30:47.239Z,17.60
2023-04-27T09:31:47.250Z,18.60
2023-04-27T09:32:47.224Z,17.70
2023-04-27T09:33:47.165Z,18.20
2023-04-27T09:34:47.184Z,19.00
2023-04-27T09:35:47.176Z,18.80
2023-04-27T09:36:47.135Z,18.10
2023-04-27T09:37:47.111Z,17.00
2023-04-27T09:38:47.124Z,17.50
2023-04-27T09:39:47.131Z,18.60
2023-04-27T09:40:47.098Z,19.60
2023-04-27T09:41:47.111Z,18.40
2023-04-27T09:42:47.088Z,18.80
2023-04-27T09:43:47.061Z,18.70
2023-04-27T09:44:47.095Z,18.00
2023-04-27T09:45:47.060Z,19.80
2023-04-27T09:46:47.081Z,18.80
2023-04-27T09:47:47.079Z,19.60
2023-04-27T09:48:47.002Z,19.40
2023-04-27T09:49:46.982Z,18.60
2023-04-27T09:50:47.015Z,19.40
2023-04-27T09:51:46.988Z,19.60
2023-04-27T09:52:46.997Z,19.90
2023-04-27T09:53:46.946Z,19.90
2023-04-27T09:54:46.930Z,20.00
2023-04-27T09:55:46.935Z,18.70
2023-04-27T09:56:47.009Z,19.90
2023-04-27T09:57:46.910Z,18.80
2023-04-27T09:58:46.976Z,19.10
2023-04-27T09:59:46.966Z,20.00
2023-04-27T10:00:46.904Z,19.90
2023-04-27T10:01:47.109Z,19.20
2023-04-27T10:02:53.370Z,19.50
2023-04-27T10:03:47.975Z,20.10
2023-04-27T10:04:46.875Z,19.50
2023-04-27T10:05:46.809Z,19.50
2023-04-27T10:06:46.810Z,19.20
2023-04-27T10:07:46.797Z,19.50
2023-04-27T10:08:46.817Z,19.30
2023-04-27T10:09:46.837Z,19.50
2023-04-27T10:10:46.798Z,19.70
2023-04-27T10:11:46.768Z,20.10
2023-04-27T10:12:46.771Z,20.10
2023-04-27T10:13:46.767Z,19.50
2023-04-27T10:14:46.761Z,19.10
2023-04-27T10:15:46.723Z,19.70
2023-04-27T10:16:46.924Z,19.50
2023-04-27T10:17:46.718Z,19.40
2023-04-27T10:18:46.679Z,18.80
2023-04-27T10:19:46.696Z,19.50
2023-04-27T10:20:46.764Z,18.40
2023-04-27T10:21:46.654Z,19.80
2023-04-27T10:22:46.618Z,19.50
2023-04-27T10:23:46.602Z,19.60
2023-04-27T10:24:46.607Z,19.70
2023-04-27T10:25:46.648Z,19.50
2023-04-27T10:26:46.592Z,19.50
2023-04-27T10:27:46.604Z,19.90
2023-04-27T10:28:46.559Z,18.80
2023-04-27T10:29:46.546Z,19.40
2023-04-27T10:30:46.763Z,19.50
2023-04-27T10:31:46.526Z,19.00
2023-04-27T10:32:46.749Z,19.10
2023-04-27T10:33:46.509Z,19.50
2023-04-27T10:34:46.525Z,19.80
2023-04-27T10:35:46.490Z,19.30
2023-04-27T10:36:46.508Z,18.80
2023-04-27T10:37:46.470Z,18.20
2023-04-27T10:38:46.483Z,19.00
2023-04-27T10:39:49.116Z,19.00
2023-04-27T10:40:46.442Z,19.30
2023-04-27T10:41:46.443Z,19.30
2023-04-27T10:42:46.411Z,19.50
2023-04-27T10:43:46.405Z,18.30
2023-04-27T10:44:46.419Z,19.40
2023-04-27T10:45:46.388Z,19.80
2023-04-27T10:46:46.392Z,19.70
2023-04-27T10:47:46.363Z,20.00
2023-04-27T10:48:46.358Z,19.30
2023-04-27T10:49:46.363Z,19.10
2023-04-27T10:50:46.314Z,18.00
2023-04-27T10:51:46.314Z,19.80
2023-04-27T10:52:46.322Z,19.40
2023-04-27T10:53:46.336Z,19.90
2023-04-27T10:54:46.318Z,19.20
2023-04-27T10:55:46.275Z,19.20
2023-04-27T10:56:46.271Z,17.50
2023-04-27T10:57:46.251Z,18.50
2023-04-27T10:58:49.377Z,19.50
2023-04-27T10:59:46.251Z,20.50
2023-04-27T11:00:46.222Z,20.00
2023-04-27T11:01:46.555Z,18.40
2023-04-27T11:02:46.264Z,20.60
2023-04-27T11:03:46.290Z,19.90
2023-04-27T11:04:46.992Z,19.60
2023-04-27T11:05:46.340Z,19.90
2023-04-27T11:06:46.170Z,20.20
2023-04-27T11:07:46.144Z,19.80
2023-04-27T11:08:46.153Z,20.40
2023-04-27T11:09:46.119Z,17.40
2023-04-27T11:10:46.215Z,17.80
2023-04-27T11:11:46.139Z,17.70
2023-04-27T11:12:46.094Z,17.80
2023-04-27T11:13:46.091Z,18.10
2023-04-27T11:14:46.075Z,19.50
2023-04-27T11:15:46.109Z,18.70
2023-04-27T11:16:46.056Z,18.30
2023-04-27T11:17:46.102Z,17.90
2023-04-27T11:18:46.037Z,17.30
2023-04-27T11:19:46.108Z,18.50
2023-04-27T11:20:46.007Z,16.90
2023-04-27T11:21:46.028Z,15.20
2023-04-27T11:22:46.432Z,15.30
2023-04-27T11:23:46.331Z,16.50
2023-04-27T11:24:45.955Z,16.30
2023-04-27T11:25:45.949Z,15.90
2023-04-27T11:26:46.127Z,15.30
2023-04-27T11:27:46.008Z,14.50
2023-04-27T11:28:47.052Z,13.90
2023-04-27T11:29:48.536Z,14.60
2023-04-27T11:30:46.001Z,16.00
2023-04-27T11:31:47.006Z,14.80
2023-04-27T11:32:45.941Z,15.30
2023-04-27T11:33:46.097Z,14.50
2023-04-27T11:34:45.841Z,14.80
2023-04-27T11:35:46.602Z,14.80
2023-04-27T11:36:46.146Z,14.60
2023-04-27T11:37:46.413Z,13.40
2023-04-27T11:38:46.668Z,14.00
2023-04-27T11:39:46.821Z,14.00
2023-04-27T11:40:46.869Z,12.30
2023-04-27T11:41:46.356Z,13.40
2023-04-27T11:42:46.388Z,14.30
2023-04-27T11:43:46.639Z,15.10
2023-04-27T11:44:46.678Z,15.70
2023-04-27T11:45:46.214Z,15.00
2023-04-27T11:46:46.523Z,15.50
2023-04-27T11:47:46.653Z,15.50
2023-04-27T11:48:45.786Z,15.10
2023-04-27T11:49:46.845Z,16.20
2023-04-27T11:50:45.669Z,14.50
2023-04-27T11:51:45.715Z,13.70
2023-04-27T11:52:45.666Z,13.90
2023-04-27T11:53:45.653Z,13.90
2023-04-27T11:54:45.633Z,13.60
2023-04-27T11:55:45.605Z,13.20
2023-04-27T11:56:45.610Z,13.80
2023-04-27T11:57:45.623Z,14.90
2023-04-27T11:58:46.498Z,14.80
2023-04-27T11:59:45.955Z,14.50
2023-04-27T12:00:45.560Z,14.70
2023-04-27T12:01:45.565Z,15.80
2023-04-27T12:02:45.655Z,15.10
2023-04-27T12:03:45.609Z,16.10
2023-04-27T12:04:45.678Z,14.70
2023-04-27T12:05:45.562Z,15.20
2023-04-27T12:06:45.499Z,15.90
2023-04-27T12:07:45.494Z,17.10
2023-04-27T12:08:45.504Z,15.90
2023-04-27T12:09:45.501Z,14.90
2023-04-27T12:10:45.489Z,14.50
2023-04-27T12:11:45.437Z,14.90
2023-04-27T12:12:45.447Z,15.50
2023-04-27T12:13:45.486Z,15.40
2023-04-27T12:14:45.422Z,15.90
2023-04-27T12:15:46.432Z,15.20
2023-04-27T12:16:45.440Z,14.70
2023-04-27T12:17:45.394Z,14.50
2023-04-27T12:18:45.381Z,13.80
2023-04-27T12:19:45.481Z,14.00
2023-04-27T12:20:45.351Z,14.10
2023-04-27T12:21:45.341Z,13.30
2023-04-27T12:22:45.320Z,12.60
2023-04-27T12:23:45.331Z,11.90
2023-04-27T12:24:45.318Z,11.80
2023-04-27T12:25:45.277Z,12.20
2023-04-27T12:26:45.295Z,12.50
2023-04-27T12:27:45.270Z,12.80
2023-04-27T12:28:45.265Z,12.60
2023-04-27T12:29:45.258Z,12.30
2023-04-27T12:30:45.327Z,13.20
2023-04-27T12:31:45.317Z,12.50
2023-04-27T12:32:45.250Z,13.80
2023-04-27T12:33:45.204Z,12.80
2023-04-27T12:34:45.198Z,12.80
2023-04-27T12:35:45.227Z,12.20
2023-04-27T12:36:45.175Z,12.30
2023-04-27T12:37:45.553Z,13.30
2023-04-27T12:38:45.148Z,13.10
2023-04-27T12:39:45.153Z,12.60
2023-04-27T12:40:45.136Z,12.10
2023-04-27T12:41:45.136Z,12.80
2023-04-27T12:42:45.161Z,12.70
2023-04-27T12:43:45.098Z,12.90
2023-04-27T12:44:45.231Z,11.30
2023-04-27T12:45:45.079Z,11.00
2023-04-27T12:46:45.209Z,12.10
2023-04-27T12:48:01.200Z,11.90
2023-04-27T12:48:46.865Z,12.20
2023-04-27T12:49:46.445Z,11.90
2023-04-27T12:50:45.584Z,12.20
2023-04-27T12:51:45.932Z,11.30
2023-04-27T12:52:46.100Z,12.10
2023-04-27T12:53:46.302Z,12.00